createdAt,value
2018-06-22T00:01:39.836Z,15.60
2018-06-22T00:04:08.852Z,15.60
2018-06-22T00:06:37.664Z,15.60
2018-06-22T00:09:08.546Z,15.50
2018-06-22T00:11:37.064Z,15.40
2018-06-22T00:14:07.010Z,15.40
2018-06-22T00:16:35.578Z,15.30
2018-06-22T00:19:04.131Z,15.20
2018-06-22T00:21:32.566Z,15.10
2018-06-22T00:26:29.186Z,15.00
2018-06-22T00:28:57.646Z,14.90
2018-06-22T00:31:26.139Z,14.80
2018-06-22T00:33:54.943Z,14.70
2018-06-22T00:36:23.385Z,14.70
2018-06-22T00:38:51.894Z,14.70
2018-06-22T00:41:20.377Z,14.70
2018-06-22T00:43:48.872Z,14.70
2018-06-22T00:46:17.291Z,14.60
2018-06-22T00:48:46.276Z,14.60
2018-06-22T00:54:15.549Z,14.50
2018-06-22T00:56:44.305Z,14.40
2018-06-22T00:59:13.337Z,14.40
2018-06-22T01:01:41.996Z,14.30
2018-06-22T01:04:11.098Z,14.20
2018-06-22T01:06:39.569Z,14.20
2018-06-22T01:09:09.623Z,14.20
2018-06-22T01:14:06.364Z,14.20
2018-06-22T01:16:35.365Z,14.20
2018-06-22T01:19:03.833Z,14.20
2018-06-22T01:21:32.303Z,14.10
2018-06-22T01:24:00.774Z,14.10
2018-06-22T01:26:29.213Z,14.00
2018-06-22T01:29:02.862Z,13.90
2018-06-22T01:31:31.336Z,13.90
2018-06-22T01:33:59.808Z,13.90
2018-06-22T01:36:28.264Z,13.90
2018-06-22T01:38:56.953Z,13.90
2018-06-22T01:41:25.966Z,13.90
2018-06-22T01:43:54.416Z,13.90
2018-06-22T01:46:23.158Z,13.80
2018-06-22T01:48:51.620Z,13.70
2018-06-22T01:51:20.061Z,13.70
2018-06-22T01:53:48.541Z,13.70
2018-06-22T01:56:17.044Z,13.60
2018-06-22T01:58:45.499Z,13.60
2018-06-22T02:01:13.959Z,13.60
2018-06-22T02:03:42.381Z,13.50
2018-06-22T02:06:13.064Z,13.50
2018-06-22T02:08:42.272Z,13.50
2018-06-22T02:11:10.753Z,13.50
2018-06-22T02:13:39.207Z,13.40
2018-06-22T02:16:07.704Z,13.40
2018-06-22T02:18:36.190Z,13.40
2018-06-22T02:21:04.669Z,13.40
2018-06-22T02:23:33.153Z,13.30
2018-06-22T02:26:01.594Z,13.30
2018-06-22T02:28:30.076Z,13.30
2018-06-22T02:30:58.530Z,13.30
2018-06-22T02:33:27.224Z,13.30
2018-06-22T02:35:55.835Z,13.30
2018-06-22T02:38:24.283Z,13.20
2018-06-22T02:40:53.032Z,13.20
2018-06-22T02:43:21.483Z,13.20
2018-06-22T02:45:49.949Z,13.10
2018-06-22T02:48:18.435Z,13.10
2018-06-22T02:50:46.915Z,13.00
2018-06-22T02:53:15.382Z,13.00
2018-06-22T02:55:43.810Z,13.00
2018-06-22T02:58:12.269Z,13.00
2018-06-22T03:00:40.749Z,13.00
2018-06-22T03:03:09.228Z,13.00
2018-06-22T03:05:37.691Z,13.00
2018-06-22T03:08:06.328Z,12.90
2018-06-22T03:10:34.775Z,12.90
2018-06-22T03:13:03.231Z,12.90
2018-06-22T03:15:31.733Z,12.80
2018-06-22T03:18:00.205Z,12.80
2018-06-22T03:20:28.692Z,12.70
2018-06-22T03:22:57.166Z,12.70
2018-06-22T03:25:25.660Z,12.70
2018-06-22T03:27:54.150Z,12.70
2018-06-22T03:30:22.627Z,12.70
2018-06-22T03:32:51.118Z,12.70
2018-06-22T03:35:19.558Z,12.70
2018-06-22T03:37:48.052Z,12.60
2018-06-22T03:40:16.503Z,12.50
2018-06-22T03:42:45.086Z,12.50
2018-06-22T03:45:13.674Z,12.50
2018-06-22T03:47:42.184Z,12.50
2018-06-22T03:50:10.708Z,12.50
2018-06-22T03:52:39.141Z,12.50
2018-06-22T03:55:07.656Z,12.50
2018-06-22T03:57:36.095Z,12.50
2018-06-22T04:00:04.597Z,12.50
2018-06-22T04:02:33.072Z,12.50
2018-06-22T04:05:01.796Z,12.40
2018-06-22T04:07:30.292Z,12.40
2018-06-22T04:09:58.725Z,12.40
2018-06-22T04:12:27.237Z,12.40
2018-06-22T04:14:55.704Z,12.40
2018-06-22T04:17:24.207Z,12.40
2018-06-22T04:19:52.723Z,12.40
2018-06-22T04:22:21.253Z,12.40
2018-06-22T04:24:49.713Z,12.50
2018-06-22T04:27:18.161Z,12.50
2018-06-22T04:29:46.649Z,12.50
2018-06-22T04:32:15.095Z,12.50
2018-06-22T04:34:43.553Z,12.50
2018-06-22T04:37:12.032Z,12.50
2018-06-22T04:39:40.479Z,12.40
2018-06-22T04:42:08.992Z,12.50
2018-06-22T04:44:37.505Z,12.50
2018-06-22T04:47:05.994Z,12.50
2018-06-22T04:49:34.438Z,12.50
2018-06-22T04:52:02.923Z,12.50
2018-06-22T04:54:31.380Z,12.50
2018-06-22T04:57:00.308Z,12.60
2018-06-22T04:59:28.768Z,12.60
2018-06-22T05:01:57.230Z,12.70
2018-06-22T05:04:25.814Z,12.70
2018-06-22T05:06:55.016Z,12.70
2018-06-22T05:09:23.587Z,12.70
2018-06-22T05:11:52.146Z,12.70
2018-06-22T05:16:48.934Z,12.90
2018-06-22T05:19:17.508Z,13.00
2018-06-22T05:24:14.182Z,12.90
2018-06-22T05:26:42.634Z,13.00
2018-06-22T05:29:11.814Z,13.00
2018-06-22T05:31:40.258Z,13.00
2018-06-22T05:34:08.738Z,13.00
2018-06-22T05:36:37.448Z,13.00
2018-06-22T05:39:08.677Z,13.10
2018-06-22T05:41:37.564Z,13.20
2018-06-22T05:46:34.467Z,13.30
2018-06-22T05:49:03.205Z,13.30
2018-06-22T05:53:59.823Z,13.40
2018-06-22T05:56:28.355Z,13.50
2018-06-22T05:58:56.808Z,13.60
2018-06-22T06:01:25.296Z,13.70
2018-06-22T06:03:53.895Z,13.80
2018-06-22T06:06:22.359Z,13.80
2018-06-22T06:08:51.501Z,13.80
2018-06-22T06:11:19.977Z,13.70
2018-06-22T06:13:48.459Z,13.70
2018-06-22T06:16:16.948Z,13.80
2018-06-22T06:18:45.619Z,13.80
2018-06-22T06:21:14.405Z,13.80
2018-06-22T06:23:42.904Z,13.80
2018-06-22T06:26:11.426Z,13.80
2018-06-22T06:28:39.939Z,13.70
2018-06-22T06:31:08.582Z,13.60
2018-06-22T06:33:37.087Z,13.50
2018-06-22T06:36:05.615Z,13.50
2018-06-22T06:38:34.157Z,13.60
2018-06-22T06:41:02.697Z,13.60
2018-06-22T06:43:31.783Z,13.70
2018-06-22T06:46:00.343Z,13.90
2018-06-22T06:48:28.909Z,13.90
2018-06-22T06:50:57.408Z,13.80
2018-06-22T06:55:54.093Z,13.70
2018-06-22T06:58:22.647Z,13.70
2018-06-22T07:05:47.721Z,13.90
2018-06-22T07:08:16.260Z,13.90
2018-06-22T07:10:44.715Z,13.80
2018-06-22T07:13:13.181Z,13.80
2018-06-22T07:15:42.082Z,13.80
2018-06-22T07:18:10.844Z,13.90
2018-06-22T07:20:39.552Z,14.00
2018-06-22T07:23:08.581Z,14.00
2018-06-22T07:25:37.092Z,14.20
2018-06-22T07:28:05.843Z,14.40
2018-06-22T07:30:34.459Z,14.40
2018-06-22T07:33:02.882Z,14.40
2018-06-22T07:35:31.359Z,14.30
2018-06-22T07:37:59.849Z,14.40
2018-06-22T07:40:28.297Z,14.50
2018-06-22T07:42:56.774Z,14.60
2018-06-22T07:45:25.232Z,14.70
2018-06-22T07:47:53.716Z,15.00
2018-06-22T07:50:22.174Z,15.00
2018-06-22T07:52:51.421Z,15.00
2018-06-22T07:55:19.875Z,14.90
2018-06-22T07:57:48.314Z,14.80
2018-06-22T08:00:16.873Z,14.60
2018-06-22T08:02:45.521Z,14.70
2018-06-22T08:05:14.017Z,14.70
2018-06-22T08:07:42.519Z,14.60
2018-06-22T08:10:11.007Z,14.50
2018-06-22T08:12:39.463Z,14.50
2018-06-22T08:15:08.080Z,14.50
2018-06-22T08:17:36.609Z,14.60
2018-06-22T08:20:05.135Z,14.70
2018-06-22T08:22:33.656Z,14.80
2018-06-22T08:25:02.223Z,14.90
2018-06-22T08:27:30.698Z,15.00
2018-06-22T08:29:59.134Z,15.10
2018-06-22T08:32:27.755Z,15.10
2018-06-22T08:34:56.277Z,15.00
2018-06-22T08:37:24.644Z,15.10
2018-06-22T08:39:53.118Z,15.10
2018-06-22T08:42:21.563Z,15.20
2018-06-22T08:44:50.039Z,15.40
2018-06-22T08:47:18.530Z,15.50
2018-06-22T08:49:46.985Z,15.40
2018-06-22T08:52:15.490Z,15.20
2018-06-22T08:54:43.944Z,15.30
2018-06-22T08:57:13.157Z,15.40
2018-06-22T08:59:41.818Z,15.60
2018-06-22T09:02:10.533Z,15.60
2018-06-22T09:04:39.112Z,15.60
2018-06-22T09:07:07.612Z,15.60
2018-06-22T09:09:36.054Z,15.80
2018-06-22T09:12:04.655Z,15.90
2018-06-22T09:14:33.194Z,15.90
2018-06-22T09:17:01.589Z,15.80
2018-06-22T09:19:30.086Z,15.80
2018-06-22T09:21:58.589Z,15.60
2018-06-22T09:24:27.176Z,15.40
2018-06-22T09:26:55.644Z,15.40
2018-06-22T09:29:24.260Z,15.20
2018-06-22T09:31:52.870Z,15.20
2018-06-22T09:34:21.575Z,15.50
2018-06-22T09:36:50.404Z,15.80
2018-06-22T09:39:18.874Z,16.20
2018-06-22T09:41:47.355Z,16.00
2018-06-22T09:44:27.302Z,15.80
2018-06-22T09:46:56.046Z,15.90
2018-06-22T09:49:24.512Z,16.20
2018-06-22T09:51:52.982Z,16.30
2018-06-22T09:54:21.443Z,16.20
2018-06-22T09:56:50.025Z,16.10
2018-06-22T09:59:18.633Z,15.90
2018-06-22T10:01:46.951Z,15.80
2018-06-22T10:04:15.424Z,15.90
2018-06-22T10:06:43.860Z,16.10
2018-06-22T10:11:41.664Z,16.40
2018-06-22T10:14:10.199Z,16.60
2018-06-22T10:16:38.738Z,16.50
2018-06-22T10:19:07.224Z,16.40
2018-06-22T10:21:36.683Z,16.20
2018-06-22T10:24:05.245Z,16.20
2018-06-22T10:26:33.745Z,16.20
2018-06-22T10:29:02.223Z,16.30
2018-06-22T10:31:30.680Z,16.30
2018-06-22T10:33:59.329Z,16.40
2018-06-22T10:38:56.229Z,16.70
2018-06-22T10:41:24.785Z,16.80
2018-06-22T10:43:53.405Z,16.90
2018-06-22T10:46:22.089Z,17.00
2018-06-22T10:48:50.604Z,17.30
2018-06-22T10:51:19.142Z,17.40
2018-06-22T10:53:48.033Z,17.40
2018-06-22T10:56:16.617Z,17.50
2018-06-22T11:01:13.261Z,17.60
2018-06-22T11:03:41.808Z,17.60
2018-06-22T11:06:10.286Z,17.60
2018-06-22T11:08:38.852Z,17.50
2018-06-22T11:13:36.059Z,17.20
2018-06-22T11:16:04.534Z,17.20
2018-06-22T11:18:33.040Z,17.20
2018-06-22T11:21:01.454Z,17.10
2018-06-22T11:23:29.934Z,17.20
2018-06-22T11:25:58.554Z,17.30
2018-06-22T11:28:27.064Z,17.30
2018-06-22T11:30:55.629Z,17.10
2018-06-22T11:33:24.098Z,16.90
2018-06-22T11:35:52.772Z,16.80
2018-06-22T11:38:21.360Z,16.80
2018-06-22T11:40:49.938Z,16.90
2018-06-22T11:43:18.603Z,17.00
2018-06-22T11:45:47.319Z,17.00
2018-06-22T11:48:16.003Z,17.20
2018-06-22T11:50:44.561Z,17.20
2018-06-22T11:53:13.116Z,17.30
2018-06-22T11:55:41.691Z,17.30
2018-06-22T11:58:10.377Z,17.50
2018-06-22T12:00:38.943Z,17.60
2018-06-22T12:03:07.604Z,17.60
2018-06-22T12:05:36.157Z,17.80
2018-06-22T12:08:04.704Z,17.80
2018-06-22T12:10:33.172Z,17.60
2018-06-22T12:13:01.722Z,17.60
2018-06-22T12:15:30.420Z,17.50
2018-06-22T12:17:59.052Z,17.30
2018-06-22T12:20:27.521Z,17.20
2018-06-22T12:22:56.638Z,17.10
2018-06-22T12:25:25.177Z,17.20
2018-06-22T12:27:53.762Z,17.50
2018-06-22T12:30:22.369Z,17.40
2018-06-22T12:32:50.907Z,17.40
2018-06-22T12:35:19.480Z,17.20
2018-06-22T12:37:47.977Z,17.10
2018-06-22T12:40:16.545Z,16.80
2018-06-22T12:42:45.211Z,16.60
2018-06-22T12:45:13.937Z,16.50
2018-06-22T12:47:42.589Z,16.50
2018-06-22T12:50:11.111Z,16.40
2018-06-22T12:52:39.671Z,16.20
2018-06-22T12:55:08.336Z,16.20
2018-06-22T12:57:36.991Z,16.10
2018-06-22T13:00:06.129Z,16.10
2018-06-22T13:02:41.355Z,16.00
2018-06-22T13:10:07.228Z,15.80
2018-06-22T13:15:04.605Z,15.60
2018-06-22T13:20:01.864Z,15.50
2018-06-22T13:22:30.370Z,15.50
2018-06-22T13:24:59.905Z,15.40
2018-06-22T13:27:28.426Z,15.30
2018-06-22T13:29:56.896Z,15.10
2018-06-22T13:32:25.623Z,15.10
2018-06-22T13:34:54.200Z,15.00
2018-06-22T13:37:22.805Z,15.00
2018-06-22T13:39:51.348Z,15.00
2018-06-22T13:42:19.878Z,14.90
2018-06-22T13:44:48.404Z,14.90
2018-06-22T13:47:17.058Z,14.90
2018-06-22T13:49:45.593Z,14.90
2018-06-22T13:52:14.259Z,14.90
2018-06-22T13:54:42.920Z,14.90
2018-06-22T13:57:11.682Z,14.90
2018-06-22T13:59:39.994Z,14.90
2018-06-22T14:02:08.565Z,14.90
2018-06-22T14:04:42.462Z,14.90
2018-06-22T14:07:11.025Z,15.00
2018-06-22T14:09:39.581Z,15.00
2018-06-22T14:12:08.259Z,15.00
2018-06-22T14:14:36.769Z,15.00
2018-06-22T14:17:05.537Z,15.10
2018-06-22T14:19:34.192Z,15.10
2018-06-22T14:22:02.699Z,15.20
2018-06-22T14:24:31.431Z,15.20
2018-06-22T14:27:00.298Z,15.20
2018-06-22T14:29:29.024Z,15.20
2018-06-22T14:31:57.584Z,15.20
2018-06-22T14:34:26.128Z,15.20
2018-06-22T14:36:54.808Z,15.20
2018-06-22T14:39:23.380Z,15.40
2018-06-22T14:41:52.082Z,15.70
2018-06-22T14:44:20.890Z,15.90
2018-06-22T14:46:49.791Z,15.90
2018-06-22T14:49:18.421Z,15.90
2018-06-22T14:51:47.132Z,15.80
2018-06-22T14:54:21.008Z,15.80
2018-06-22T14:59:28.546Z,15.80
2018-06-22T15:02:02.457Z,15.80
2018-06-22T15:04:36.415Z,15.80
2018-06-22T15:07:10.211Z,15.80
2018-06-22T15:09:38.869Z,15.80
2018-06-22T15:12:08.219Z,15.80
2018-06-22T15:14:37.567Z,15.80
2018-06-22T15:17:10.496Z,15.80
2018-06-22T15:19:39.544Z,15.90
2018-06-22T15:22:09.395Z,16.00
2018-06-22T15:24:38.164Z,16.10
2018-06-22T15:27:07.208Z,16.00
2018-06-22T15:29:36.202Z,16.10
2018-06-22T15:32:05.089Z,16.20
2018-06-22T15:34:38.953Z,16.20
2018-06-22T15:37:12.670Z,16.10
2018-06-22T15:39:46.544Z,16.10
2018-06-22T15:42:20.411Z,16.10
2018-06-22T15:44:54.258Z,16.10
2018-06-22T15:47:28.219Z,16.10
2018-06-22T15:50:02.065Z,16.10
2018-06-22T15:52:35.960Z,16.00
2018-06-22T15:55:10.827Z,16.00
2018-06-22T16:00:09.763Z,16.10
2018-06-22T16:02:43.509Z,16.00
2018-06-22T16:05:12.045Z,15.90
2018-06-22T16:07:40.845Z,15.90
2018-06-22T16:10:09.465Z,15.90
2018-06-22T16:12:39.545Z,15.90
2018-06-22T16:15:14.528Z,15.80
2018-06-22T16:17:48.401Z,15.70
2018-06-22T16:20:22.441Z,15.80
2018-06-22T16:22:57.104Z,15.70
2018-06-22T16:25:30.933Z,15.70
2018-06-22T16:30:31.374Z,15.80
2018-06-22T16:32:59.877Z,15.80
2018-06-22T16:35:28.694Z,15.70
2018-06-22T16:37:57.248Z,15.80
2018-06-22T16:40:25.898Z,15.80
2018-06-22T16:42:54.466Z,15.90
2018-06-22T16:45:22.953Z,16.00
2018-06-22T16:47:51.557Z,16.00
2018-06-22T16:50:20.106Z,15.90
2018-06-22T16:52:48.670Z,15.80
2018-06-22T16:55:17.217Z,15.70
2018-06-22T16:57:45.822Z,15.70
2018-06-22T17:00:14.529Z,15.70
2018-06-22T17:02:43.474Z,15.60
2018-06-22T17:05:12.084Z,15.60
2018-06-22T17:07:46.048Z,15.60
2018-06-22T17:10:19.757Z,15.60
2018-06-22T17:12:53.574Z,15.60
2018-06-22T17:15:27.466Z,15.60
2018-06-22T17:18:01.410Z,15.60
2018-06-22T17:20:30.097Z,15.60
2018-06-22T17:22:58.621Z,15.60
2018-06-22T17:25:27.269Z,15.50
2018-06-22T17:27:56.580Z,15.50
2018-06-22T17:30:25.214Z,15.50
2018-06-22T17:32:53.715Z,15.40
2018-06-22T17:35:22.298Z,15.30
2018-06-22T17:37:51.303Z,15.30
2018-06-22T17:40:19.953Z,15.30
2018-06-22T17:42:48.502Z,15.30
2018-06-22T17:45:17.175Z,15.30
2018-06-22T17:47:45.914Z,15.20
2018-06-22T17:50:19.913Z,15.20
2018-06-22T17:52:48.514Z,15.10
2018-06-22T17:55:17.652Z,15.10
2018-06-22T17:57:46.397Z,15.00
2018-06-22T18:00:20.571Z,15.00
2018-06-22T18:05:28.169Z,14.90
2018-06-22T18:07:56.906Z,14.90
2018-06-22T18:10:30.739Z,14.90
2018-06-22T18:13:00.459Z,14.90
2018-06-22T18:15:29.220Z,14.80
2018-06-22T18:17:58.043Z,14.80
2018-06-22T18:20:26.805Z,14.80
2018-06-22T18:22:55.468Z,14.80
2018-06-22T18:25:24.184Z,14.70
2018-06-22T18:27:53.114Z,14.70
2018-06-22T18:30:21.857Z,14.60
2018-06-22T18:32:51.226Z,14.60
2018-06-22T18:35:20.219Z,14.60
2018-06-22T18:37:49.637Z,14.50
2018-06-22T18:40:18.525Z,14.50
2018-06-22T18:42:48.133Z,14.50
2018-06-22T18:45:17.239Z,14.50
2018-06-22T18:47:46.491Z,14.40
2018-06-22T18:50:15.359Z,14.40
2018-06-22T18:52:49.531Z,14.30
2018-06-22T18:55:23.788Z,14.30
2018-06-22T18:57:57.958Z,14.30
2018-06-22T19:00:32.361Z,14.20
2018-06-22T19:03:06.523Z,14.20
2018-06-22T19:05:35.422Z,14.20
2018-06-22T19:08:04.486Z,14.10
2018-06-22T19:10:33.269Z,14.10
2018-06-22T19:13:02.214Z,14.10
2018-06-22T19:15:31.217Z,14.00
2018-06-22T19:20:28.699Z,13.90
2018-06-22T19:22:57.737Z,13.90
2018-06-22T19:25:26.605Z,13.80
2018-06-22T19:27:55.651Z,13.80
2018-06-22T19:30:24.778Z,13.80
2018-06-22T19:32:53.631Z,13.70
2018-06-22T19:35:22.606Z,13.70
2018-06-22T19:37:52.600Z,13.60
2018-06-22T19:42:50.682Z,13.50
2018-06-22T19:45:25.273Z,13.50
2018-06-22T19:47:59.154Z,13.50
2018-06-22T19:50:32.960Z,13.50
2018-06-22T19:53:07.527Z,13.50
2018-06-22T19:55:36.291Z,13.50
2018-06-22T19:58:05.513Z,13.40
2018-06-22T20:00:34.339Z,13.40
2018-06-22T20:03:03.121Z,13.40
2018-06-22T20:05:31.749Z,13.40
2018-06-22T20:08:00.479Z,13.30
2018-06-22T20:10:29.219Z,13.30
2018-06-22T20:12:58.120Z,13.20
2018-06-22T20:15:27.078Z,13.10
2018-06-22T20:17:56.350Z,13.10
2018-06-22T20:20:25.260Z,13.10
2018-06-22T20:22:54.048Z,13.00
2018-06-22T20:25:27.927Z,13.00
2018-06-22T20:27:57.017Z,13.00
2018-06-22T20:30:25.665Z,13.00
2018-06-22T20:32:54.923Z,12.90
2018-06-22T20:35:28.755Z,13.00
2018-06-22T20:38:02.535Z,13.00
2018-06-22T20:40:37.386Z,12.90
2018-06-22T20:43:11.507Z,12.90
2018-06-22T20:45:49.653Z,12.90
2018-06-22T20:48:24.302Z,12.90
2018-06-22T20:50:53.214Z,12.80
2018-06-22T20:53:21.954Z,12.80
2018-06-22T20:55:50.671Z,12.80
2018-06-22T20:58:20.090Z,12.80
2018-06-22T21:00:48.956Z,12.70
2018-06-22T21:03:18.581Z,12.70
2018-06-22T21:05:47.256Z,12.60
2018-06-22T21:08:15.790Z,12.60
2018-06-22T21:10:44.332Z,12.50
2018-06-22T21:13:13.942Z,12.50
2018-06-22T21:15:42.417Z,12.50
2018-06-22T21:18:11.160Z,12.50
2018-06-22T21:20:44.192Z,12.50
2018-06-22T21:23:12.886Z,12.50
2018-06-22T21:25:41.524Z,12.50
2018-06-22T21:28:15.473Z,12.50
2018-06-22T21:30:49.610Z,12.60
2018-06-22T21:33:23.469Z,12.60
2018-06-22T21:35:57.415Z,12.60
2018-06-22T21:38:31.186Z,12.60
2018-06-22T21:40:59.633Z,12.60
2018-06-22T21:45:57.949Z,12.60
2018-06-22T21:48:26.493Z,12.60
2018-06-22T21:50:55.071Z,12.70
2018-06-22T21:55:51.768Z,12.70
2018-06-22T21:58:20.282Z,12.70
2018-06-22T22:00:48.869Z,12.70
2018-06-22T22:03:17.391Z,12.70
2018-06-22T22:05:45.901Z,12.70
2018-06-22T22:08:14.349Z,12.70
2018-06-22T22:10:48.333Z,12.70
2018-06-22T22:13:16.909Z,12.70
2018-06-22T22:15:45.422Z,12.60
2018-06-22T22:18:13.888Z,12.60
2018-06-22T22:23:10.589Z,12.60
2018-06-22T22:25:39.070Z,12.50
2018-06-22T22:28:07.527Z,12.50
2018-06-22T22:30:35.999Z,12.50
2018-06-22T22:33:04.589Z,12.40
2018-06-22T22:35:33.130Z,12.40
2018-06-22T22:38:02.598Z,12.40
2018-06-22T22:40:31.085Z,12.30
2018-06-22T22:42:59.537Z,12.30
2018-06-22T22:45:27.955Z,12.30
2018-06-22T22:47:56.551Z,12.30
2018-06-22T22:50:25.056Z,12.30
2018-06-22T22:52:53.531Z,12.30
2018-06-22T22:55:22.035Z,12.30
2018-06-22T22:57:50.529Z,12.30
2018-06-22T23:00:19.009Z,12.30
2018-06-22T23:02:47.517Z,12.30
2018-06-22T23:05:16.051Z,12.30
2018-06-22T23:07:44.551Z,12.20
2018-06-22T23:10:13.081Z,12.20
2018-06-22T23:12:41.536Z,12.20
2018-06-22T23:15:10.055Z,12.20
2018-06-22T23:17:38.523Z,12.20
2018-06-22T23:20:07.393Z,12.20
2018-06-22T23:22:47.331Z,12.20
2018-06-22T23:25:15.838Z,12.20
2018-06-22T23:27:44.292Z,12.20
2018-06-22T23:30:12.733Z,12.20
2018-06-22T23:32:41.198Z,12.20
2018-06-22T23:35:09.662Z,12.20
2018-06-22T23:37:38.342Z,12.20
2018-06-22T23:40:06.816Z,12.10
2018-06-22T23:42:35.290Z,12.10
2018-06-22T23:45:03.771Z,12.10
2018-06-22T23:47:33.231Z,12.10
2018-06-22T23:50:01.754Z,12.00
2018-06-22T23:54:58.384Z,12.00
2018-06-22T23:57:26.858Z,12.00
2018-06-22T23:59:55.396Z,12.00
